Time,TemperatureF,DewpointF,PressureIn,WindDirection,WindDirectionDegrees,WindSpeedMPH,WindSpeedGustMPH,Humidity,HourlyPrecipIn,Conditions,Clouds,dailyrainin,SoftwareType,DateUTC
2013-08-09 00:00:00,60.0,57.0,-100.00,West,265,0.0,3.0,89,-99.99,,,-99.99,,2013-08-09 05:00:00,
2013-08-09 00:33:00,60.0,57.0,-100.00,West,265,0.0,3.0,89,-99.99,,,-99.99,,2013-08-09 05:33:00,
2013-08-09 00:43:00,60.0,57.0,-100.00,West,265,0.0,3.0,89,-99.99,,,-99.99,,2013-08-09 05:43:00,
2013-08-09 00:52:00,60.0,57.0,-100.00,West,265,0.0,3.0,89,-99.99,,,-99.99,,2013-08-09 05:52:00,
2013-08-09 01:01:00,59.0,56.0,-100.00,SE,135,0.0,1.0,89,-99.99,,,-99.99,,2013-08-09 06:01:00,
2013-08-09 01:22:00,59.0,56.0,-100.00,SE,135,0.0,1.0,89,-99.99,,,-99.99,,2013-08-09 06:22:00,
2013-08-09 01:32:00,59.0,56.0,-100.00,SE,135,0.0,1.0,89,-99.99,,,-99.99,,2013-08-09 06:32:00,
2013-08-09 01:43:00,59.0,56.0,-100.00,SE,135,0.0,1.0,89,-99.99,,,-99.99,,2013-08-09 06:43:00,
2013-08-09 01:52:00,59.0,56.0,-100.00,SE,135,0.0,1.0,89,-99.99,,,-99.99,,2013-08-09 06:52:00,
2013-08-09 03:01:00,57.0,54.0,-100.00,WNW,300,1.0,3.0,90,-99.99,,,-99.99,,2013-08-09 08:01:00,
2013-08-09 03:22:00,57.0,54.0,-100.00,WNW,300,1.0,3.0,90,-99.99,,,-99.99,,2013-08-09 08:22:00,
2013-08-09 03:32:00,57.0,54.0,-100.00,WNW,300,1.0,3.0,90,-99.99,,,-99.99,,2013-08-09 08:32:00,
2013-08-09 03:43:00,57.0,54.0,-100.00,WNW,300,1.0,3.0,90,-99.99,,,-99.99,,2013-08-09 08:43:00,
2013-08-09 03:53:00,57.0,54.0,-100.00,WNW,300,1.0,3.0,90,-99.99,,,-99.99,,2013-08-09 08:53:00,
2013-08-09 04:00:00,56.0,53.0,-100.00,SSE,150,1.0,1.0,90,-99.99,,,-99.99,,2013-08-09 09:00:00,
2013-08-09 04:22:00,56.0,53.0,-100.00,SSE,150,1.0,1.0,90,-99.99,,,-99.99,,2013-08-09 09:22:00,
2013-08-09 04:32:00,56.0,53.0,-100.00,SSE,150,1.0,1.0,90,-99.99,,,-99.99,,2013-08-09 09:32:00,
2013-08-09 04:43:00,56.0,53.0,-100.00,SSE,150,1.0,1.0,90,-99.99,,,-99.99,,2013-08-09 09:43:00,
2013-08-09 04:52:00,56.0,53.0,-100.00,SSE,150,1.0,1.0,90,-99.99,,,-99.99,,2013-08-09 09:52:00,
2013-08-09 05:01:00,58.0,55.0,-100.00,WSW,245,0.0,2.0,90,-99.99,,,-99.99,,2013-08-09 10:01:00,
2013-08-09 05:22:00,58.0,55.0,-100.00,WSW,245,0.0,2.0,90,-99.99,,,-99.99,,2013-08-09 10:22:00,
2013-08-09 05:32:00,58.0,55.0,-100.00,WSW,245,0.0,2.0,90,-99.99,,,-99.99,,2013-08-09 10:32:00,
2013-08-09 05:43:00,58.0,55.0,-100.00,WSW,245,0.0,2.0,90,-99.99,,,-99.99,,2013-08-09 10:43:00,
2013-08-09 05:53:00,58.0,55.0,-100.00,WSW,245,0.0,2.0,90,-99.99,,,-99.99,,2013-08-09 10:53:00,
2013-08-09 06:01:00,58.0,55.0,-100.00,ESE,115,0.0,2.0,90,-99.99,,,-99.99,,2013-08-09 11:01:00,
2013-08-09 06:22:00,58.0,55.0,-100.00,ESE,115,0.0,2.0,90,-99.99,,,-99.99,,2013-08-09 11:22:00,
2013-08-09 06:33:00,58.0,55.0,-100.00,ESE,115,0.0,2.0,90,-99.99,,,-99.99,,2013-08-09 11:33:00,
2013-08-09 06:43:00,58.0,55.0,-100.00,ESE,115,0.0,2.0,90,-99.99,,,-99.99,,2013-08-09 11:43:00,
2013-08-09 06:53:00,58.0,55.0,-100.00,ESE,115,0.0,2.0,90,-99.99,,,-99.99,,2013-08-09 11:53:00,
2013-08-09 07:01:00,60.0,57.0,-100.00,WNW,290,2.0,4.0,90,-99.99,,,-99.99,,2013-08-09 12:01:00,
2013-08-09 07:22:00,60.0,57.0,-100.00,WNW,290,2.0,4.0,90,-99.99,,,-99.99,,2013-08-09 12:22:00,
2013-08-09 07:32:00,60.0,57.0,-100.00,WNW,290,2.0,4.0,90,-99.99,,,-99.99,,2013-08-09 12:32:00,
2013-08-09 07:43:00,60.0,57.0,-100.00,WNW,290,2.0,4.0,90,-99.99,,,-99.99,,2013-08-09 12:43:00,
2013-08-09 07:52:00,60.0,57.0,-100.00,WNW,290,2.0,4.0,90,-99.99,,,-99.99,,2013-08-09 12:52:00,
2013-08-09 08:01:00,63.0,57.0,-100.00,WSW,245,1.0,4.0,82,-99.99,,,-99.99,,2013-08-09 13:01:00,
2013-08-09 08:23:00,63.0,57.0,-100.00,WSW,245,1.0,4.0,82,-99.99,,,-99.99,,2013-08-09 13:23:00,
2013-08-09 08:32:00,63.0,57.0,-100.00,WSW,245,1.0,4.0,82,-99.99,,,-99.99,,2013-08-09 13:32:00,
2013-08-09 08:43:00,63.0,57.0,-100.00,WSW,245,1.0,4.0,82,-99.99,,,-99.99,,2013-08-09 13:43:00,
2013-08-09 08:52:00,63.0,57.0,-100.00,WSW,245,1.0,4.0,82,-99.99,,,-99.99,,2013-08-09 13:52:00,
2013-08-09 09:00:00,69.0,59.0,-100.00,West,265,3.0,8.0,69,-99.99,,,-99.99,,2013-08-09 14:00:00,
2013-08-09 09:22:00,69.0,59.0,-100.00,West,265,3.0,8.0,69,-99.99,,,-99.99,,2013-08-09 14:22:00,
2013-08-09 09:33:00,69.0,59.0,-100.00,West,265,3.0,8.0,69,-99.99,,,-99.99,,2013-08-09 14:33:00,
2013-08-09 09:43:00,69.0,59.0,-100.00,West,265,3.0,8.0,69,-99.99,,,-99.99,,2013-08-09 14:43:00,
2013-08-09 09:53:00,69.0,59.0,-100.00,West,265,3.0,8.0,69,-99.99,,,-99.99,,2013-08-09 14:53:00,
2013-08-09 10:01:00,70.0,56.0,-100.00,NW,305,9.0,14.0,61,-99.99,,,-99.99,,2013-08-09 15:01:00,
2013-08-09 10:22:00,70.0,56.0,-100.00,NW,305,9.0,14.0,61,-99.99,,,-99.99,,2013-08-09 15:22:00,
2013-08-09 10:33:00,70.0,56.0,-100.00,NW,305,9.0,14.0,61,-99.99,,,-99.99,,2013-08-09 15:33:00,
2013-08-09 10:44:00,70.0,56.0,-100.00,NW,305,9.0,14.0,61,-99.99,,,-99.99,,2013-08-09 15:44:00,
2013-08-09 10:53:00,70.0,56.0,-100.00,NW,305,9.0,14.0,61,-99.99,,,-99.99,,2013-08-09 15:53:00,
2013-08-09 11:01:00,69.0,58.0,-100.00,NW,310,4.0,11.0,67,-99.99,,,-99.99,,2013-08-09 16:01:00,
2013-08-09 11:22:00,69.0,58.0,-100.00,NW,310,4.0,11.0,67,-99.99,,,-99.99,,2013-08-09 16:22:00,
2013-08-09 11:32:00,69.0,58.0,-100.00,NW,310,4.0,11.0,67,-99.99,,,-99.99,,2013-08-09 16:32:00,
2013-08-09 11:43:00,69.0,58.0,-100.00,NW,310,4.0,11.0,67,-99.99,,,-99.99,,2013-08-09 16:43:00,
2013-08-09 11:53:00,69.0,58.0,-100.00,NW,310,4.0,11.0,67,-99.99,,,-99.99,,2013-08-09 16:53:00,
2013-08-09 12:00:00,72.0,57.0,-100.00,West,265,6.0,11.0,59,-99.99,,,-99.99,,2013-08-09 17:00:00,
2013-08-09 12:22:00,72.0,57.0,-100.00,West,265,6.0,11.0,59,-99.99,,,-99.99,,2013-08-09 17:22:00,
2013-08-09 12:33:00,72.0,57.0,-100.00,West,265,6.0,11.0,59,-99.99,,,-99.99,,2013-08-09 17:33:00,
2013-08-09 12:43:00,72.0,57.0,-100.00,West,265,6.0,11.0,59,-99.99,,,-99.99,,2013-08-09 17:43:00,
2013-08-09 12:52:00,72.0,57.0,-100.00,West,265,6.0,11.0,59,-99.99,,,-99.99,,2013-08-09 17:52:00,
2013-08-09 13:01:00,74.0,56.0,-100.00,SW,235,3.0,9.0,54,-99.99,,,-99.99,,2013-08-09 18:01:00,
2013-08-09 13:22:00,74.0,56.0,-100.00,SW,235,3.0,9.0,54,-99.99,,,-99.99,,2013-08-09 18:22:00,
2013-08-09 13:32:00,74.0,56.0,-100.00,SW,235,3.0,9.0,54,-99.99,,,-99.99,,2013-08-09 18:32:00,
2013-08-09 13:43:00,74.0,56.0,-100.00,SW,235,3.0,9.0,54,-99.99,,,-99.99,,2013-08-09 18:43:00,
2013-08-09 13:53:00,74.0,56.0,-100.00,SW,235,3.0,9.0,54,-99.99,,,-99.99,,2013-08-09 18:53:00,
2013-08-09 14:01:00,78.0,58.0,-100.00,West,265,4.0,12.0,51,-99.99,,,-99.99,,2013-08-09 19:01:00,
2013-08-09 14:22:00,78.0,58.0,-100.00,West,265,4.0,12.0,51,-99.99,,,-99.99,,2013-08-09 19:22:00,
2013-08-09 14:32:00,78.0,58.0,-100.00,West,265,4.0,12.0,51,-99.99,,,-99.99,,2013-08-09 19:32:00,
2013-08-09 14:43:00,78.0,58.0,-100.00,West,265,4.0,12.0,51,-99.99,,,-99.99,,2013-08-09 19:43:00,
2013-08-09 14:52:00,78.0,58.0,-100.00,West,265,4.0,12.0,51,-99.99,,,-99.99,,2013-08-09 19:52:00,
2013-08-09 15:00:00,76.0,55.0,-100.00,West,260,5.0,12.0,49,-99.99,,,-99.99,,2013-08-09 20:00:00,
2013-08-09 15:22:00,76.0,55.0,-100.00,West,260,5.0,12.0,49,-99.99,,,-99.99,,2013-08-09 20:22:00,
2013-08-09 15:32:00,76.0,55.0,-100.00,West,260,5.0,12.0,49,-99.99,,,-99.99,,2013-08-09 20:32:00,
2013-08-09 15:43:00,76.0,55.0,-100.00,West,260,5.0,12.0,49,-99.99,,,-99.99,,2013-08-09 20:43:00,
2013-08-09 15:52:00,76.0,55.0,-100.00,West,260,5.0,12.0,49,-99.99,,,-99.99,,2013-08-09 20:52:00,
2013-08-09 17:01:00,78.0,53.0,-100.00,West,275,6.0,14.0,42,-99.99,,,-99.99,,2013-08-09 22:01:00,
2013-08-09 17:22:00,78.0,53.0,-100.00,West,275,6.0,14.0,42,-99.99,,,-99.99,,2013-08-09 22:22:00,
2013-08-09 17:32:00,78.0,53.0,-100.00,West,275,6.0,14.0,42,-99.99,,,-99.99,,2013-08-09 22:32:00,
2013-08-09 17:43:00,78.0,53.0,-100.00,West,275,6.0,14.0,42,-99.99,,,-99.99,,2013-08-09 22:43:00,
2013-08-09 17:52:00,78.0,53.0,-100.00,West,275,6.0,14.0,42,-99.99,,,-99.99,,2013-08-09 22:52:00,
2013-08-09 18:01:00,76.0,53.0,-100.00,WNW,295,6.0,14.0,45,-99.99,,,-99.99,,2013-08-09 23:01:00,
2013-08-09 18:22:00,76.0,53.0,-100.00,WNW,295,6.0,14.0,45,-99.99,,,-99.99,,2013-08-09 23:22:00,
2013-08-09 18:32:00,76.0,53.0,-100.00,WNW,295,6.0,14.0,45,-99.99,,,-99.99,,2013-08-09 23:32:00,
2013-08-09 18:43:00,76.0,53.0,-100.00,WNW,295,6.0,14.0,45,-99.99,,,-99.99,,2013-08-09 23:43:00,
2013-08-09 18:52:00,76.0,53.0,-100.00,WNW,295,6.0,14.0,45,-99.99,,,-99.99,,2013-08-09 23:52:00,
2013-08-09 19:01:00,74.0,53.0,-100.00,WNW,300,7.0,11.0,47,-99.99,,,-99.99,,2013-08-10 00:01:00,
2013-08-09 19:22:00,74.0,53.0,-100.00,WNW,300,7.0,11.0,47,-99.99,,,-99.99,,2013-08-10 00:22:00,
2013-08-09 19:33:00,74.0,53.0,-100.00,WNW,300,7.0,11.0,47,-99.99,,,-99.99,,2013-08-10 00:33:00,
2013-08-09 19:43:00,74.0,53.0,-100.00,WNW,300,7.0,11.0,47,-99.99,,,-99.99,,2013-08-10 00:43:00,
2013-08-09 19:53:00,74.0,53.0,-100.00,WNW,300,7.0,11.0,47,-99.99,,,-99.99,,2013-08-10 00:53:00,
2013-08-09 20:00:00,69.0,51.0,-100.00,NW,310,2.0,6.0,54,-99.99,,,-99.99,,2013-08-10 01:00:00,
2013-08-09 20:22:00,69.0,51.0,-100.00,NW,310,2.0,6.0,54,-99.99,,,-99.99,,2013-08-10 01:22:00,
2013-08-09 20:32:00,69.0,51.0,-100.00,NW,310,2.0,6.0,54,-99.99,,,-99.99,,2013-08-10 01:32:00,
2013-08-09 20:43:00,69.0,51.0,-100.00,NW,310,2.0,6.0,54,-99.99,,,-99.99,,2013-08-10 01:43:00,
2013-08-09 20:52:00,69.0,51.0,-100.00,NW,310,2.0,6.0,54,-99.99,,,-99.99,,2013-08-10 01:52:00,
2013-08-09 21:01:00,63.0,56.0,-100.00,NW,315,1.0,2.0,78,-99.99,,,-99.99,,2013-08-10 02:01:00,
2013-08-09 21:42:00,63.0,56.0,-100.00,NW,315,1.0,2.0,78,-99.99,,,-99.99,,2013-08-10 02:42:00,
2013-08-09 21:52:00,63.0,56.0,-100.00,NW,315,1.0,2.0,78,-99.99,,,-99.99,,2013-08-10 02:52:00,
2013-08-09 22:01:00,60.0,56.0,-100.00,NW,305,0.0,1.0,85,-99.99,,,-99.99,,2013-08-10 03:01:00,
2013-08-09 22:42:00,60.0,56.0,-100.00,NW,305,0.0,1.0,85,-99.99,,,-99.99,,2013-08-10 03:42:00,
2013-08-09 22:52:00,60.0,56.0,-100.00,NW,305,0.0,1.0,85,-99.99,,,-99.99,,2013-08-10 03:52:00,
2013-08-09 23:01:00,59.0,54.0,-100.00,NW,320,0.0,1.0,86,-99.99,,,-99.99,,2013-08-10 04:01:00,
2013-08-09 23:22:00,59.0,54.0,-100.00,NW,320,0.0,1.0,86,-99.99,,,-99.99,,2013-08-10 04:22:00,
2013-08-09 23:43:00,59.0,54.0,-100.00,NW,320,0.0,1.0,86,-99.99,,,-99.99,,2013-08-10 04:43:00,
2013-08-09 23:53:00,59.0,54.0,-100.00,NW,320,0.0,1.0,86,-99.99,,,-99.99,,2013-08-10 04:53:00,